Nearby METAR Reports


NZWN - Wellington Intl, New Zealand
Distance from station: SSW 357km
Updated: 17/10/2018 12:00
Clear
Clear
 Wind from N
Wind: N 22 km/h
Temperature: 17°C
Dew Point: 9°C
Humidity: 59%
Barometer: 1020 hPa
Clouds: Clear
Visibility: 10 km
2018/10/16 23:00 NZWN 162300Z AUTO 36012KT 9999 NCD 17/09 Q1020 NOSIG
NZAA - Auckland Intl Ar, New Zealand
Distance from station: NW 162km
Updated: 17/10/2018 12:00
Overcast
Overcast
 Wind from SW
Wind: SW 35 km/h
Temperature: 14°C
Dew Point: 8°C
Humidity: 67%
Barometer: 1025 hPa
Clouds: Overcast
Visibility: 10 km
Cloud details: Overcast 975 m
2018/10/16 23:00 NZAA 162300Z AUTO 22019KT 9999 OVC032/// 14/08 Q1025 NOSIG
 
NZCH - Christchurch Int, New Zealand
Distance from station: SSW 647km
Updated: 17/10/2018 12:00
Light rain, Mostly cloudy
Light rain, Mostly cloudy
 Wind from NW
Wind: NW 11 km/h
Temperature: 15°C
Dew Point: 10°C
Humidity: 72%
Barometer: 1018 hPa
Summary: Light Rain
Clouds: Mostly Cloudy
Visibility: 10 km
Cloud details: Few Clouds 2134 m
Mostly Cloudy 2591 m
2018/10/16 23:00 NZCH 162300Z AUTO 31006KT 280V350 9999 -RA FEW070/// BKN085/// 15/10 Q1018 NOSIG
YSNF - Norfolk Island A, Australia
Distance from station: NW 1258km
Updated: 17/10/2018 12:00
Mostly Cloudy
Mostly Cloudy
 Wind from E
Wind: E 30 km/h
Temperature: 19°C
Dew Point: 14°C
Humidity: 73%
Barometer: 1023 hPa
Clouds: Mostly Cloudy
Visibility: 10 km
Cloud details: Few Clouds 610 m
Mostly Cloudy 2987 m
2018/10/16 23:00 YSNF 162300Z 08016KT 9999 FEW020 BKN098 19/14 Q1023 RF00.0/000.0